CDT,Max TemperatureF,Mean TemperatureF,Min TemperatureF,Max Dew PointF,MeanDew PointF,Min DewpointF,Max Humidity, Mean Humidity, Min Humidity, Max Sea Level PressureIn, Mean Sea Level PressureIn, Min Sea Level PressureIn, Max VisibilityMiles, Mean VisibilityMiles, Min VisibilityMiles, Max Wind SpeedMPH, Mean Wind SpeedMPH, Max Gust SpeedMPH,PrecipitationIn, CloudCover, Events, WindDirDegrees
2013-9-1,62,56,50,57,51,45,88,79,68,30.07,29.96,29.77,10,9,2,17,11,24,0.00,7,Thunderstorm,338
2013-9-2,71,56,41,55,47,37,87,73,50,30.14,30.08,30.00,10,9,0,9,2,,0.00,0,,205
2013-9-3,86,66,46,66,54,43,87,69,48,30.06,29.95,29.89,10,10,4,15,8,21,0.00,0,,234
2013-9-4,71,58,44,52,46,37,87,69,31,30.23,30.17,30.06,10,10,7,8,4,,0.00,0,,343
2013-9-5,80,62,44,63,51,39,87,68,36,30.22,30.14,29.99,10,10,7,13,5,17,0.00,0,,171
2013-9-6,89,76,64,73,66,57,88,75,55,29.99,29.90,29.85,10,10,7,10,7,,0.00,0,,214
2013-9-7,77,66,53,66,57,48,83,68,36,30.14,30.06,29.91,10,10,4,20,8,23,0.00,0,,42
2013-9-8,71,62,53,57,54,48,88,74,53,30.14,30.02,29.85,10,10,4,14,8,20,0.00,3,,126
2013-9-9,66,63,60,61,57,55,88,82,77,29.85,29.74,29.68,10,8,2,12,5,,0.06,8,Rain,61
2013-9-10,75,68,60,61,58,55,83,76,53,29.87,29.83,29.75,10,9,2,12,4,,0.01,4,Rain,265
2013-9-11,78,64,51,61,54,46,88,71,44,30.16,30.00,29.85,10,10,7,20,8,30,0.00,1,,293
2013-9-12,69,58,46,52,47,43,88,71,43,30.29,30.24,30.16,10,10,10,10,4,16,0.00,3,,318
2013-9-13,73,58,42,54,47,37,87,68,44,30.23,30.10,29.89,10,10,5,18,8,23,0.00,0,,194
2013-9-14,71,63,55,59,53,48,88,72,57,30.01,29.87,29.80,10,10,10,16,11,21,0.00,2,Rain,244
2013-9-15,62,50,39,48,41,34,87,69,39,30.33,30.23,30.02,10,10,10,13,8,17,0.00,1,,36
2013-9-16,69,50,30,46,39,25,87,67,38,30.35,30.26,30.11,10,10,7,17,4,21,0.00,0,,180
2013-9-17,66,58,50,55,51,41,82,75,60,30.11,29.94,29.82,10,9,2,22,13,28,0.00,4,,177
2013-9-18,71,66,60,63,59,54,88,81,73,29.81,29.71,29.61,10,9,3,15,10,22,0.00,6,Rain-Thunderstorm,148
2013-9-19,69,61,53,63,59,48,88,83,73,29.82,29.70,29.60,10,6,0,16,6,21,0.00,6,Thunderstorm,269
2013-9-20,55,50,44,48,43,37,87,75,63,29.96,29.88,29.83,10,10,10,17,11,24,0.00,6,,311
2013-9-21,59,49,39,41,38,34,87,69,45,30.02,29.97,29.92,10,10,2,9,5,,0.00,3,,19
2013-9-22,71,55,39,54,45,36,87,67,43,29.92,29.79,29.68,10,10,10,23,11,31,0.00,0,,128
2013-9-23,80,70,60,55,54,52,77,62,37,29.75,29.69,29.66,10,10,3,25,16,32,0.00,0,,161
2013-9-24,73,63,51,57,52,46,88,74,47,29.91,29.86,29.75,10,10,10,20,10,24,0.00,1,Rain,185
2013-9-25,75,62,48,57,51,43,88,70,50,29.91,29.86,29.80,10,9,0,17,8,23,0.00,0,,151
2013-9-26,77,67,57,61,56,52,82,69,50,29.84,29.75,29.67,10,10,10,29,13,34,0.00,1,,150
2013-9-27,66,58,51,57,48,46,88,82,73,29.83,29.77,29.72,10,8,0,9,4,,1.47,6,Rain-Thunderstorm,327
2013-9-28,51,48,46,46,44,41,87,83,81,29.77,29.66,29.53,10,9,3,17,7,26,1.56,7,Rain,289
2013-9-29,73,56,39,50,44,36,87,67,38,29.76,29.68,29.54,10,10,10,22,10,28,0.16,0,,182
2013-9-30,69,62,55,52,48,43,82,64,38,29.53,29.50,29.44,10,10,10,13,8,18,0.00,1,,198